KONA Airport (Winona Muni-Max Conrad Fld) Information

FAA: ONA - ICAO: KONA

KONA Airport Location

State Minnesota
County Winona
City Winona
KONA Airport is 3 miles northwest of Winona, MN.
Latitude 44-04-46.5956N
Longitude 091-42-41.8676W
Elevation 656ft

KONA Airport METARs

METAR KONA 240855Z AUTO 16003KT 10SM CLR 09/09 A2990 RMK AO2
Altimeter 29.90"
Temperature 9.0°C (48.2°F)
Wind 160° at 3KT
Clouds Skies are clear.
Visibility 10.0mi
Time observed: 2021-09-24T08:55:00Z

KONA Airport Details

Status Operational
Activation December 1948
Ownership Public
Usage Public
Chart GREEN BAY
ATC on-site No
Beacon schedule sunset-sunrise
Beacon color clear green

KONA Airport Contacts

Owner CITY OF WINONA
Owner address BOX 378, WINONA, MN 55987
Owner phone 507-457-8274
Manager ANNE BUELOW
Manager address 39126 JOLLY FISHERMAN ROAD, WAUBUN, MN 56589
Manager phone 701-388-8042

KONA Airport (Winona Muni-Max Conrad Fld) Radio Frequencies

KONA (Airport) Radio Frequencies

UNICOM 122.8
Common traffic advisory frequency (CTAF) 122.8